createdAt,value
2022-09-21T00:02:10.665Z,4.47
2022-09-21T00:04:38.173Z,3.00
2022-09-21T00:07:05.718Z,6.37
2022-09-21T00:09:33.262Z,4.28
2022-09-21T00:12:00.808Z,6.27
2022-09-21T00:14:28.361Z,6.68
2022-09-21T00:16:55.967Z,3.43
2022-09-21T00:19:24.189Z,6.63
2022-09-21T00:21:51.784Z,4.67
2022-09-21T00:24:19.307Z,5.73
2022-09-21T00:26:46.832Z,7.00
2022-09-21T00:29:14.378Z,3.30
2022-09-21T00:31:41.940Z,3.37
2022-09-21T00:34:09.552Z,3.40
2022-09-21T00:36:37.026Z,5.57
2022-09-21T00:39:04.547Z,2.67
2022-09-21T00:41:32.848Z,3.28
2022-09-21T00:44:18.798Z,3.20
2022-09-21T00:46:46.333Z,5.03
2022-09-21T00:49:13.845Z,4.33
2022-09-21T00:51:41.389Z,6.55
2022-09-21T00:54:09.692Z,6.20
2022-09-21T00:56:37.247Z,5.67
2022-09-21T00:59:04.857Z,3.63
2022-09-21T01:01:32.347Z,4.83
2022-09-21T01:03:59.881Z,3.80
2022-09-21T01:06:27.445Z,3.77
2022-09-21T01:08:55.777Z,5.60
2022-09-21T01:11:35.925Z,7.30
2022-09-21T01:14:27.595Z,3.23
2022-09-21T01:17:09.808Z,3.70
2022-09-21T01:20:05.672Z,2.13
2022-09-21T01:22:49.019Z,3.03
2022-09-21T01:25:25.554Z,3.00
2022-09-21T01:28:13.911Z,6.40
2022-09-21T01:30:44.608Z,2.17
2022-09-21T01:33:18.749Z,4.37
2022-09-21T01:35:49.001Z,2.40
2022-09-21T01:38:16.527Z,4.10
2022-09-21T01:40:44.113Z,3.57
2022-09-21T01:43:12.363Z,3.30
2022-09-21T01:45:39.935Z,7.47
2022-09-21T01:48:08.210Z,6.07
2022-09-21T01:50:38.197Z,6.93
2022-09-21T01:53:09.138Z,8.27
2022-09-21T01:55:37.451Z,8.00
2022-09-21T01:58:07.408Z,7.93
2022-09-21T02:00:34.975Z,10.03
2022-09-21T02:03:11.133Z,9.00
2022-09-21T02:05:38.667Z,12.50
2022-09-21T02:08:06.211Z,9.10
2022-09-21T02:10:33.757Z,7.47
2022-09-21T02:13:01.283Z,8.20
2022-09-21T02:15:29.564Z,8.23
2022-09-21T02:18:09.860Z,7.93
2022-09-21T02:20:37.394Z,6.57
2022-09-21T02:23:10.560Z,5.93
2022-09-21T02:25:57.355Z,7.07
2022-09-21T02:28:27.446Z,4.23
2022-09-21T02:30:57.695Z,6.77
2022-09-21T02:33:30.632Z,6.33
2022-09-21T02:35:58.157Z,6.10
2022-09-21T02:38:37.675Z,4.17
2022-09-21T02:41:07.612Z,5.43
2022-09-21T02:43:47.967Z,6.75
2022-09-21T02:46:25.412Z,7.33
2022-09-21T02:48:56.358Z,6.93
2022-09-21T02:51:26.846Z,4.97
2022-09-21T02:53:54.391Z,8.63
2022-09-21T02:56:22.733Z,5.20
2022-09-21T02:58:53.526Z,3.60
2022-09-21T03:01:21.057Z,5.50
2022-09-21T03:03:49.386Z,7.23
2022-09-21T03:06:16.931Z,4.90
2022-09-21T03:08:44.464Z,6.13
2022-09-21T03:11:12.334Z,5.50
2022-09-21T03:13:39.858Z,4.70
2022-09-21T03:16:07.484Z,8.47
2022-09-21T03:18:34.940Z,4.27
2022-09-21T03:21:02.464Z,4.03
2022-09-21T03:23:29.976Z,3.33
2022-09-21T03:25:57.551Z,4.13
2022-09-21T03:28:25.086Z,7.53
2022-09-21T03:30:52.667Z,9.70
2022-09-21T03:33:20.159Z,6.93
2022-09-21T03:35:50.673Z,8.10
2022-09-21T03:38:19.025Z,14.00
2022-09-21T03:40:46.562Z,6.70
2022-09-21T03:43:14.085Z,12.43
2022-09-21T03:45:41.620Z,8.97
2022-09-21T03:48:09.165Z,9.60
2022-09-21T03:50:36.689Z,16.37
2022-09-21T03:53:04.215Z,19.70
2022-09-21T03:55:31.778Z,67.00
2022-09-21T03:57:59.303Z,56.87
2022-09-21T04:00:26.830Z,106.80
2022-09-21T04:02:54.409Z,92.10
2022-09-21T04:05:21.900Z,99.23
2022-09-21T04:07:50.187Z,51.60
2022-09-21T04:10:18.631Z,40.97
2022-09-21T04:12:46.167Z,38.60
2022-09-21T04:15:16.595Z,25.10
2022-09-21T04:17:44.170Z,53.60
2022-09-21T04:20:11.694Z,43.40
2022-09-21T04:22:43.390Z,42.08
2022-09-21T04:25:07.582Z,21.10
2022-09-21T04:27:35.884Z,28.30
2022-09-21T04:30:03.409Z,41.30
2022-09-21T04:32:30.963Z,23.23
2022-09-21T04:34:58.499Z,11.37
2022-09-21T04:37:26.023Z,23.70
2022-09-21T04:39:53.579Z,14.35
2022-09-21T04:42:21.103Z,9.60
2022-09-21T04:44:48.627Z,67.03
2022-09-21T04:47:16.191Z,33.00
2022-09-21T04:49:43.716Z,86.57
2022-09-21T04:52:12.916Z,138.90
2022-09-21T04:54:39.584Z,57.37
2022-09-21T04:57:07.109Z,23.93
2022-09-21T04:59:34.654Z,37.00
2022-09-21T05:02:02.227Z,8.33
2022-09-21T05:04:29.743Z,6.77
2022-09-21T05:06:57.277Z,5.27
2022-09-21T05:09:43.175Z,35.63
2022-09-21T05:12:10.710Z,12.63
2022-09-21T05:14:38.225Z,4.62
2022-09-21T05:17:06.597Z,33.80
2022-09-21T05:19:34.899Z,18.97
2022-09-21T05:22:02.444Z,26.77
2022-09-21T05:24:30.786Z,43.37
2022-09-21T05:26:58.323Z,92.73
2022-09-21T05:29:25.914Z,74.67
2022-09-21T05:31:59.179Z,71.33
2022-09-21T05:34:54.136Z,103.47
2022-09-21T05:37:40.880Z,90.83
2022-09-21T05:40:08.593Z,91.77
2022-09-21T05:42:36.107Z,76.70
2022-09-21T05:45:03.673Z,78.10
2022-09-21T05:47:33.659Z,79.00
2022-09-21T05:50:22.175Z,89.10
2022-09-21T05:53:01.763Z,50.90
2022-09-21T05:55:36.358Z,93.43
2022-09-21T05:58:04.679Z,97.27
2022-09-21T06:00:32.194Z,53.53
2022-09-21T06:03:27.790Z,37.47
2022-09-21T06:05:55.336Z,76.83
2022-09-21T06:08:22.870Z,59.67
2022-09-21T06:10:57.454Z,80.03
2022-09-21T06:13:25.757Z,106.93
2022-09-21T06:15:53.282Z,151.60
2022-09-21T06:18:21.633Z,106.53
2022-09-21T06:20:49.168Z,74.20
2022-09-21T06:23:16.703Z,82.57
2022-09-21T06:25:44.307Z,167.20
2022-09-21T06:28:11.823Z,56.27
2022-09-21T06:30:39.416Z,117.77
2022-09-21T06:33:07.689Z,60.70
2022-09-21T06:35:35.223Z,152.60
2022-09-21T06:38:02.758Z,24.73
2022-09-21T06:40:30.390Z,96.13
2022-09-21T06:42:57.898Z,78.77
2022-09-21T06:45:25.432Z,65.40
2022-09-21T06:47:53.765Z,58.50
2022-09-21T06:50:21.298Z,55.27
2022-09-21T06:52:48.844Z,71.22
2022-09-21T06:55:16.417Z,42.80
2022-09-21T06:57:43.971Z,42.93
2022-09-21T07:00:11.626Z,45.80
2022-09-21T07:02:39.189Z,24.63
2022-09-21T07:05:06.792Z,15.50
2022-09-21T07:07:34.320Z,17.30
2022-09-21T07:10:05.739Z,12.48
2022-09-21T07:12:29.427Z,10.37
2022-09-21T07:14:56.961Z,9.67
2022-09-21T07:17:25.330Z,15.00
2022-09-21T07:19:52.848Z,11.27
2022-09-21T07:22:20.373Z,9.47
2022-09-21T07:24:48.243Z,10.20
2022-09-21T07:27:15.826Z,10.17
2022-09-21T07:29:43.322Z,8.43
2022-09-21T07:32:11.654Z,8.90
2022-09-21T07:34:39.188Z,8.77
2022-09-21T07:37:06.734Z,12.20
2022-09-21T07:39:35.077Z,11.63
2022-09-21T07:42:02.601Z,9.70
2022-09-21T07:44:30.135Z,11.23
2022-09-21T07:46:57.700Z,18.10
2022-09-21T07:49:25.231Z,11.13
2022-09-21T07:51:52.759Z,5.83
2022-09-21T07:54:20.334Z,4.57
2022-09-21T07:56:47.868Z,10.35
2022-09-21T07:59:15.402Z,9.20
2022-09-21T08:01:42.976Z,7.00
2022-09-21T08:04:10.514Z,7.70
2022-09-21T08:06:38.085Z,8.87
2022-09-21T08:09:05.649Z,8.10
2022-09-21T08:11:33.216Z,7.50
2022-09-21T08:14:00.711Z,9.33
2022-09-21T08:16:28.321Z,8.60
2022-09-21T08:18:55.826Z,9.43
2022-09-21T08:21:23.352Z,12.20
2022-09-21T08:23:50.936Z,16.80
2022-09-21T08:26:18.473Z,9.90
2022-09-21T08:28:46.006Z,6.67
2022-09-21T08:31:13.678Z,15.97
2022-09-21T08:33:41.115Z,9.67
2022-09-21T08:36:08.649Z,9.53
2022-09-21T08:38:37.365Z,11.57
2022-09-21T08:41:22.738Z,15.73
2022-09-21T08:43:50.336Z,9.63
2022-09-21T08:46:17.916Z,8.00
2022-09-21T08:48:45.405Z,10.13
2022-09-21T08:51:12.999Z,8.43
2022-09-21T08:53:46.057Z,8.80
2022-09-21T08:56:13.582Z,8.20
2022-09-21T08:58:41.168Z,10.80
2022-09-21T09:01:21.194Z,10.95
2022-09-21T09:04:03.479Z,12.73
2022-09-21T09:06:30.579Z,10.50
2022-09-21T09:10:25.528Z,8.23
2022-09-21T09:13:05.019Z,11.80
2022-09-21T09:15:51.974Z,14.13
2022-09-21T09:18:22.703Z,12.03
2022-09-21T09:20:50.237Z,10.73
2022-09-21T09:23:32.925Z,10.20
2022-09-21T09:26:03.787Z,10.67
2022-09-21T09:28:33.991Z,12.57
2022-09-21T09:31:10.875Z,9.87
2022-09-21T09:33:50.476Z,10.43
2022-09-21T09:36:30.107Z,9.53
2022-09-21T09:39:01.151Z,10.47
2022-09-21T09:41:34.436Z,9.43
2022-09-21T09:44:13.895Z,9.97
2022-09-21T09:46:56.675Z,8.77
2022-09-21T09:49:37.062Z,11.38
2022-09-21T09:52:04.620Z,10.65
2022-09-21T09:54:32.161Z,6.17
2022-09-21T09:56:59.699Z,8.25
2022-09-21T09:59:27.265Z,7.07
2022-09-21T10:02:06.552Z,7.43
2022-09-21T10:04:34.167Z,11.17
2022-09-21T10:07:01.608Z,6.40
2022-09-21T10:09:32.337Z,4.07
2022-09-21T10:12:04.736Z,14.30
2022-09-21T10:14:29.941Z,3.67
2022-09-21T10:16:57.477Z,3.70
2022-09-21T10:19:25.053Z,5.40
2022-09-21T10:21:55.234Z,3.60
2022-09-21T10:24:32.379Z,6.50
2022-09-21T10:27:14.989Z,4.07
2022-09-21T10:29:45.467Z,5.12
2022-09-21T10:32:15.334Z,2.93
2022-09-21T10:34:41.320Z,3.43
2022-09-21T10:37:23.933Z,7.73
2022-09-21T10:39:51.480Z,3.13
2022-09-21T10:42:19.781Z,5.10
2022-09-21T10:44:47.346Z,7.03
2022-09-21T10:47:23.348Z,5.30
2022-09-21T10:49:53.799Z,4.67
2022-09-21T10:52:22.117Z,2.40
2022-09-21T10:54:49.626Z,2.27
2022-09-21T10:57:18.854Z,4.07
2022-09-21T10:59:46.403Z,3.93
2022-09-21T11:02:29.137Z,4.70
2022-09-21T11:04:56.637Z,3.40
2022-09-21T11:07:32.786Z,4.03
2022-09-21T11:10:22.061Z,6.07
2022-09-21T11:12:50.359Z,3.93
2022-09-21T11:15:21.719Z,2.40
2022-09-21T11:17:51.754Z,3.10
2022-09-21T11:20:31.254Z,2.67
2022-09-21T11:22:58.837Z,3.63
2022-09-21T11:25:29.255Z,3.47
2022-09-21T11:28:15.411Z,3.97
2022-09-21T11:30:52.223Z,2.30
2022-09-21T11:33:28.389Z,3.13
2022-09-21T11:36:14.483Z,3.53
2022-09-21T11:38:57.548Z,1.00
2022-09-21T11:41:46.113Z,2.47
2022-09-21T11:44:28.693Z,2.73
2022-09-21T11:47:14.452Z,0.80
2022-09-21T11:49:48.003Z,3.73
2022-09-21T11:52:23.986Z,5.87
2022-09-21T11:55:13.142Z,2.33
2022-09-21T11:57:40.715Z,12.30
2022-09-21T12:00:13.922Z,3.20
2022-09-21T12:02:53.343Z,3.00
2022-09-21T12:05:46.052Z,4.23
2022-09-21T12:08:31.436Z,1.37
2022-09-21T12:11:17.059Z,5.33
2022-09-21T12:13:47.832Z,4.00
2022-09-21T12:16:39.240Z,2.33
2022-09-21T12:19:18.702Z,2.70
2022-09-21T12:21:46.271Z,2.70
2022-09-21T12:24:23.047Z,7.73
2022-09-21T12:26:51.526Z,1.37
2022-09-21T12:29:24.734Z,1.53
2022-09-21T12:31:55.024Z,1.97
2022-09-21T12:34:22.623Z,1.90
2022-09-21T12:37:02.441Z,4.03
2022-09-21T12:39:30.057Z,3.67
2022-09-21T12:42:01.165Z,2.90
2022-09-21T12:44:52.661Z,6.70
2022-09-21T12:47:20.196Z,3.17
2022-09-21T12:49:47.728Z,4.77
2022-09-21T12:52:16.061Z,3.10
2022-09-21T12:54:45.311Z,1.33
2022-09-21T12:57:29.746Z,1.85
2022-09-21T12:59:41.679Z,3.43
2022-09-21T13:02:18.018Z,2.33
2022-09-21T13:05:04.365Z,1.40
2022-09-21T13:07:50.192Z,1.83
2022-09-21T13:10:24.300Z,1.20
2022-09-21T13:12:51.831Z,2.00
2022-09-21T13:15:22.039Z,1.62
2022-09-21T13:17:49.623Z,4.17
2022-09-21T13:20:20.143Z,6.13
2022-09-21T13:22:47.668Z,1.20
2022-09-21T13:25:24.190Z,1.10
2022-09-21T13:28:10.105Z,2.30
2022-09-21T13:30:44.086Z,1.07
2022-09-21T13:33:20.340Z,3.33
2022-09-21T13:35:53.974Z,2.75
2022-09-21T13:38:31.472Z,2.10
2022-09-21T13:41:02.604Z,1.80
2022-09-21T13:43:52.283Z,1.33
2022-09-21T13:46:35.739Z,3.17
2022-09-21T13:49:03.272Z,1.47
2022-09-21T13:51:34.530Z,1.23
2022-09-21T13:54:02.214Z,3.53
2022-09-21T13:56:29.737Z,1.27
2022-09-21T13:58:58.051Z,2.47
2022-09-21T14:03:53.467Z,1.83
2022-09-21T14:06:23.423Z,1.63
2022-09-21T14:08:56.739Z,3.03
2022-09-21T14:11:24.256Z,2.30
2022-09-21T14:14:00.760Z,2.40
2022-09-21T14:16:33.714Z,1.13
2022-09-21T14:19:01.182Z,2.57
2022-09-21T14:21:28.733Z,2.28
2022-09-21T14:24:08.269Z,1.87
2022-09-21T14:26:35.791Z,1.67
2022-09-21T14:29:09.264Z,1.37
2022-09-21T14:31:36.901Z,4.00
2022-09-21T14:34:04.396Z,4.95
2022-09-21T14:36:38.668Z,2.27
2022-09-21T14:39:06.328Z,1.70
2022-09-21T14:41:33.787Z,1.77
2022-09-21T14:44:01.312Z,2.70
2022-09-21T14:46:32.051Z,2.67
2022-09-21T14:49:35.814Z,1.07
2022-09-21T14:52:24.988Z,1.43
2022-09-21T14:55:04.840Z,1.27
2022-09-21T14:58:00.781Z,0.70
2022-09-21T15:00:40.620Z,1.97
2022-09-21T15:03:29.570Z,1.53
2022-09-21T15:06:05.744Z,3.23
2022-09-21T15:09:04.029Z,1.48
2022-09-21T15:11:31.552Z,1.57
2022-09-21T15:13:59.085Z,0.83
2022-09-21T15:16:32.693Z,1.70
2022-09-21T15:19:09.081Z,2.23
2022-09-21T15:21:36.576Z,2.17
2022-09-21T15:24:04.182Z,2.43
2022-09-21T15:26:31.704Z,1.23
2022-09-21T15:29:09.953Z,1.40
2022-09-21T15:31:35.134Z,1.13
2022-09-21T15:34:02.647Z,1.73
2022-09-21T15:36:30.950Z,1.47
2022-09-21T15:38:58.565Z,1.53
2022-09-21T15:41:34.595Z,1.53
2022-09-21T15:44:14.300Z,2.17
2022-09-21T15:46:41.887Z,3.20
2022-09-21T15:49:13.043Z,1.93
2022-09-21T15:51:40.617Z,1.33
2022-09-21T15:54:08.150Z,2.17
2022-09-21T15:56:35.696Z,1.70
2022-09-21T15:59:09.014Z,1.87
2022-09-21T16:01:40.243Z,0.93
2022-09-21T16:04:07.893Z,1.10
2022-09-21T16:06:38.020Z,0.73
2022-09-21T16:09:26.920Z,0.60
2022-09-21T16:11:54.515Z,0.80
2022-09-21T16:14:40.836Z,1.80
2022-09-21T16:17:14.335Z,1.77
2022-09-21T16:19:44.519Z,1.17
2022-09-21T16:22:12.821Z,1.30
2022-09-21T16:24:46.352Z,0.67
2022-09-21T16:27:16.565Z,0.90
2022-09-21T16:29:44.094Z,1.73
2022-09-21T16:32:20.407Z,0.87
2022-09-21T16:34:47.932Z,1.87
2022-09-21T16:37:27.217Z,2.47
2022-09-21T16:39:54.758Z,1.83
2022-09-21T16:42:22.312Z,2.50
2022-09-21T16:44:49.876Z,3.10
2022-09-21T16:47:17.420Z,3.47
2022-09-21T16:49:44.955Z,3.63
2022-09-21T16:52:12.520Z,2.50
2022-09-21T16:54:40.064Z,4.07
2022-09-21T16:57:07.589Z,3.53
2022-09-21T16:59:35.174Z,2.80
2022-09-21T17:02:03.522Z,1.67
2022-09-21T17:04:30.999Z,2.63
2022-09-21T17:06:59.610Z,4.37
2022-09-21T17:09:32.873Z,2.00
2022-09-21T17:12:01.268Z,3.23
2022-09-21T17:14:28.742Z,2.67
2022-09-21T17:16:56.276Z,4.53
2022-09-21T17:19:24.578Z,3.03
2022-09-21T17:21:52.171Z,2.70
2022-09-21T17:24:45.810Z,5.90
2022-09-21T17:26:47.230Z,4.63
2022-09-21T17:29:21.440Z,3.47
2022-09-21T17:31:52.477Z,1.77
2022-09-21T17:34:26.511Z,1.57
2022-09-21T17:36:54.037Z,2.03
2022-09-21T17:39:21.570Z,3.07
2022-09-21T17:41:52.216Z,4.43
2022-09-21T17:44:19.752Z,2.33
2022-09-21T17:47:14.227Z,3.08
2022-09-21T17:49:41.759Z,9.47
2022-09-21T17:52:27.340Z,0.73
2022-09-21T17:54:55.633Z,1.77
2022-09-21T17:57:41.474Z,2.33
2022-09-21T18:00:21.027Z,2.90
2022-09-21T18:02:48.659Z,1.07
2022-09-21T18:05:25.115Z,1.70
2022-09-21T18:07:52.698Z,4.57
2022-09-21T18:10:20.284Z,1.10
2022-09-21T18:13:12.572Z,3.22
2022-09-21T18:15:42.717Z,1.87
2022-09-21T18:18:31.575Z,2.10
2022-09-21T18:20:59.023Z,2.27
2022-09-21T18:23:44.764Z,1.53
2022-09-21T18:26:12.426Z,3.97
2022-09-21T18:28:42.866Z,1.80
2022-09-21T18:31:22.198Z,4.37
2022-09-21T18:34:07.438Z,2.77
2022-09-21T18:36:35.789Z,6.28
2022-09-21T18:39:15.198Z,4.30
2022-09-21T18:41:48.581Z,4.00
2022-09-21T18:44:18.586Z,3.47
2022-09-21T18:46:56.086Z,5.10
2022-09-21T18:49:48.266Z,5.07
2022-09-21T18:52:15.850Z,12.50
2022-09-21T18:54:44.142Z,8.52
2022-09-21T18:57:11.688Z,7.03
2022-09-21T18:59:40.069Z,7.10
2022-09-21T19:02:14.783Z,6.00
2022-09-21T19:04:44.749Z,7.60
2022-09-21T19:07:21.075Z,3.67
2022-09-21T19:10:07.574Z,3.27
2022-09-21T19:12:47.465Z,3.83
2022-09-21T19:15:15.000Z,3.43
2022-09-21T19:17:45.531Z,6.90
2022-09-21T19:20:24.020Z,3.93
2022-09-21T19:22:54.809Z,2.10
2022-09-21T19:25:28.061Z,2.93
2022-09-21T19:27:59.455Z,2.63
2022-09-21T19:30:27.109Z,4.37
2022-09-21T19:32:54.673Z,3.33
2022-09-21T19:35:27.701Z,3.73
2022-09-21T19:37:55.996Z,3.33
2022-09-21T19:40:24.470Z,5.30
2022-09-21T19:43:10.727Z,7.03
2022-09-21T19:45:53.807Z,6.00
2022-09-21T19:48:21.265Z,6.43
2022-09-21T19:50:54.913Z,5.13
2022-09-21T19:53:40.989Z,6.63
2022-09-21T19:56:32.332Z,3.42
2022-09-21T19:59:18.201Z,3.77
2022-09-21T20:01:51.661Z,5.10
2022-09-21T20:04:37.404Z,2.70
2022-09-21T20:07:07.872Z,2.37
2022-09-21T20:09:38.403Z,5.60
2022-09-21T20:12:17.760Z,2.03
2022-09-21T20:14:45.286Z,7.10
2022-09-21T20:17:13.625Z,3.93
2022-09-21T20:19:41.171Z,3.40
2022-09-21T20:22:11.167Z,4.60
2022-09-21T20:24:50.665Z,2.57
2022-09-21T20:27:21.666Z,1.73
2022-09-21T20:29:49.200Z,4.73
2022-09-21T20:32:16.766Z,3.30
2022-09-21T20:34:44.290Z,4.93
2022-09-21T20:37:12.592Z,3.30
2022-09-21T20:39:40.167Z,2.33
2022-09-21T20:42:07.702Z,4.63
2022-09-21T20:44:35.236Z,5.97
2022-09-21T20:47:03.578Z,5.23
2022-09-21T20:49:31.496Z,5.20
2022-09-21T20:51:59.839Z,7.90
2022-09-21T20:54:27.414Z,5.20
2022-09-21T20:56:55.853Z,10.73
2022-09-21T20:59:23.399Z,4.27
2022-09-21T21:01:51.060Z,8.30
2022-09-21T21:04:18.577Z,5.30
2022-09-21T21:06:46.032Z,4.60
2022-09-21T21:09:14.364Z,7.07
2022-09-21T21:11:41.899Z,7.33
2022-09-21T21:14:09.435Z,7.07
2022-09-21T21:16:37.802Z,5.03
2022-09-21T21:19:05.311Z,5.60
2022-09-21T21:21:32.838Z,4.23
2022-09-21T21:24:18.566Z,8.57
2022-09-21T21:27:02.819Z,3.83
2022-09-21T21:29:13.645Z,4.47
2022-09-21T21:31:41.287Z,2.70
2022-09-21T21:34:08.752Z,6.10
2022-09-21T21:36:37.055Z,5.33
2022-09-21T21:39:04.738Z,3.10
2022-09-21T21:41:32.160Z,6.10
2022-09-21T21:43:59.690Z,4.10
2022-09-21T21:46:27.336Z,3.97
2022-09-21T21:48:55.542Z,5.53
2022-09-21T21:51:23.840Z,3.37
2022-09-21T21:53:51.390Z,7.87
2022-09-21T21:56:18.905Z,4.23
2022-09-21T21:58:46.439Z,7.33
2022-09-21T22:01:14.031Z,10.02
2022-09-21T22:03:41.519Z,9.83
2022-09-21T22:06:09.053Z,8.93
2022-09-21T22:08:37.376Z,8.33
2022-09-21T22:11:04.911Z,7.27
2022-09-21T22:13:35.013Z,9.07
2022-09-21T22:16:07.069Z,6.33
2022-09-21T22:18:34.566Z,5.87
2022-09-21T22:21:05.104Z,7.77
2022-09-21T22:23:32.678Z,6.20
2022-09-21T22:26:09.309Z,4.47
2022-09-21T22:28:37.623Z,3.17
2022-09-21T22:31:05.156Z,5.13
2022-09-21T22:33:35.369Z,1.93
2022-09-21T22:36:02.933Z,2.87
2022-09-21T22:38:30.448Z,6.33
2022-09-21T22:41:03.822Z,2.90
2022-09-21T22:43:31.652Z,4.05
2022-09-21T22:45:59.222Z,3.33
2022-09-21T22:48:27.490Z,3.90
2022-09-21T22:50:55.024Z,4.17
2022-09-21T22:53:23.327Z,3.53
2022-09-21T22:55:50.862Z,3.90
2022-09-21T22:58:19.175Z,4.83
2022-09-21T23:00:46.746Z,6.10
2022-09-21T23:03:14.983Z,6.43
2022-09-21T23:05:43.297Z,6.50
2022-09-21T23:08:10.829Z,4.80
2022-09-21T23:10:38.364Z,5.33
2022-09-21T23:13:06.706Z,3.87
2022-09-21T23:15:34.251Z,2.93
2022-09-21T23:18:01.776Z,5.77
2022-09-21T23:20:29.322Z,3.67
2022-09-21T23:22:57.633Z,4.20
2022-09-21T23:25:25.157Z,4.80
2022-09-21T23:27:53.501Z,4.40
2022-09-21T23:30:21.025Z,3.10
2022-09-21T23:32:48.567Z,3.70
2022-09-21T23:35:16.122Z,3.57
2022-09-21T23:37:43.646Z,2.50
2022-09-21T23:40:11.254Z,6.33
2022-09-21T23:42:38.782Z,4.55
2022-09-21T23:45:07.197Z,7.53
2022-09-21T23:47:34.730Z,3.10
2022-09-21T23:50:03.053Z,3.80
2022-09-21T23:52:30.579Z,3.60
2022-09-21T23:54:58.103Z,3.93
2022-09-21T23:57:25.667Z,6.70
2022-09-21T23:59:53.192Z,10.33
